sensor_id;sensor_type;location;lat;lon;timestamp;pressure;altitude;pressure_sealevel;temperature;humidity
61906;BME280;47863;55.766;37.672;2023-05-31T00:02:14;99505.13;;;13.70;48.58
61906;BME280;47863;55.766;37.672;2023-05-31T00:04:39;99482.41;;;13.58;48.96
61906;BME280;47863;55.766;37.672;2023-05-31T00:07:06;99499.31;;;13.66;49.11
61906;BME280;47863;55.766;37.672;2023-05-31T00:09:32;99508.56;;;13.64;49.39
61906;BME280;47863;55.766;37.672;2023-05-31T00:11:58;99507.09;;;13.61;49.50
61906;BME280;47863;55.766;37.672;2023-05-31T00:14:24;99447.38;;;13.21;49.52
61906;BME280;47863;55.766;37.672;2023-05-31T00:16:50;99512.19;;;13.56;49.96
61906;BME280;47863;55.766;37.672;2023-05-31T00:19:15;99489.59;;;13.36;49.77
61906;BME280;47863;55.766;37.672;2023-05-31T00:21:43;99525.94;;;13.46;49.98
61906;BME280;47863;55.766;37.672;2023-05-31T00:24:08;99524.47;;;13.44;49.91
61906;BME280;47863;55.766;37.672;2023-05-31T00:26:34;99527.53;;;13.41;49.92
61906;BME280;47863;55.766;37.672;2023-05-31T00:28:59;99520.47;;;13.40;50.37
61906;BME280;47863;55.766;37.672;2023-05-31T00:31:25;99501.75;;;13.32;50.45
61906;BME280;47863;55.766;37.672;2023-05-31T00:33:51;99506.38;;;13.38;50.47
61906;BME280;47863;55.766;37.672;2023-05-31T00:36:16;99502.94;;;13.29;50.62
61906;BME280;47863;55.766;37.672;2023-05-31T00:38:42;99522.53;;;13.38;50.83
61906;BME280;47863;55.766;37.672;2023-05-31T00:41:09;99524.09;;;13.32;51.18
61906;BME280;47863;55.766;37.672;2023-05-31T00:43:35;99536.34;;;13.35;51.25
61906;BME280;47863;55.766;37.672;2023-05-31T00:46:01;99532.81;;;13.34;51.05
61906;BME280;47863;55.766;37.672;2023-05-31T00:48:27;99532.00;;;13.34;51.05
61906;BME280;47863;55.766;37.672;2023-05-31T00:50:53;99521.22;;;13.34;51.52
61906;BME280;47863;55.766;37.672;2023-05-31T00:53:19;99515.44;;;13.22;51.34
61906;BME280;47863;55.766;37.672;2023-05-31T00:55:47;99533.19;;;13.31;51.27
61906;BME280;47863;55.766;37.672;2023-05-31T00:58:14;99520.44;;;13.25;51.32
61906;BME280;47863;55.766;37.672;2023-05-31T01:00:40;99533.06;;;13.24;51.66
61906;BME280;47863;55.766;37.672;2023-05-31T01:03:06;99525.31;;;13.29;51.76
61906;BME280;47863;55.766;37.672;2023-05-31T01:05:35;99541.44;;;13.29;51.57
61906;BME280;47863;55.766;37.672;2023-05-31T01:08:01;99536.06;;;13.29;51.77
61906;BME280;47863;55.766;37.672;2023-05-31T01:10:28;99544.13;;;13.29;52.00
61906;BME280;47863;55.766;37.672;2023-05-31T01:16:02;99527.50;;;13.26;52.16
61906;BME280;47863;55.766;37.672;2023-05-31T01:18:37;99534.34;;;13.28;52.51
61906;BME280;47863;55.766;37.672;2023-05-31T01:21:07;99523.88;;;13.19;52.27
61906;BME280;47863;55.766;37.672;2023-05-31T01:28:44;99502.63;;;13.09;52.43
61906;BME280;47863;55.766;37.672;2023-05-31T01:31:14;99525.72;;;13.18;53.15
61906;BME280;47863;55.766;37.672;2023-05-31T01:33:42;99518.41;;;13.12;52.34
61906;BME280;47863;55.766;37.672;2023-05-31T01:36:09;99523.78;;;13.12;52.40
61906;BME280;47863;55.766;37.672;2023-05-31T01:38:34;99523.97;;;13.10;52.26
61906;BME280;47863;55.766;37.672;2023-05-31T01:41:01;99524.13;;;13.09;52.61
61906;BME280;47863;55.766;37.672;2023-05-31T01:43:27;99521.28;;;13.10;52.76
61906;BME280;47863;55.766;37.672;2023-05-31T01:45:54;99522.78;;;13.13;52.83
61906;BME280;47863;55.766;37.672;2023-05-31T01:48:22;99511.72;;;13.08;52.87
61906;BME280;47863;55.766;37.672;2023-05-31T01:50:48;99528.81;;;13.15;52.60
61906;BME280;47863;55.766;37.672;2023-05-31T01:53:15;99529.81;;;13.14;52.51
61906;BME280;47863;55.766;37.672;2023-05-31T01:55:40;99524.34;;;13.07;52.86
61906;BME280;47863;55.766;37.672;2023-05-31T01:58:09;99526.66;;;13.10;53.24
61906;BME280;47863;55.766;37.672;2023-05-31T02:00:36;99521.66;;;13.07;53.24
61906;BME280;47863;55.766;37.672;2023-05-31T02:03:04;99524.53;;;13.06;53.14
61906;BME280;47863;55.766;37.672;2023-05-31T02:05:30;99524.88;;;13.03;53.10
61906;BME280;47863;55.766;37.672;2023-05-31T02:07:55;99508.81;;;12.95;53.37
61906;BME280;47863;55.766;37.672;2023-05-31T02:10:21;99497.16;;;12.87;53.26
61906;BME280;47863;55.766;37.672;2023-05-31T02:12:47;99521.84;;;13.06;53.72
61906;BME280;47863;55.766;37.672;2023-05-31T02:15:16;99540.84;;;13.19;53.64
61906;BME280;47863;55.766;37.672;2023-05-31T02:17:47;99524.59;;;13.13;54.10
61906;BME280;47863;55.766;37.672;2023-05-31T02:20:17;99540.84;;;13.19;53.51
61906;BME280;47863;55.766;37.672;2023-05-31T02:22:44;99535.47;;;13.19;53.40
61906;BME280;47863;55.766;37.672;2023-05-31T02:25:12;99528.34;;;13.12;53.85
61906;BME280;47863;55.766;37.672;2023-05-31T02:27:39;99533.78;;;13.18;53.63
61906;BME280;47863;55.766;37.672;2023-05-31T02:30:06;99507.09;;;13.02;53.72
61906;BME280;47863;55.766;37.672;2023-05-31T02:32:32;99536.78;;;13.23;53.84
61906;BME280;47863;55.766;37.672;2023-05-31T02:35:04;99533.72;;;13.26;54.88
61906;BME280;47863;55.766;37.672;2023-05-31T02:37:31;99533.19;;;13.31;54.01
61906;BME280;47863;55.766;37.672;2023-05-31T02:39:57;99535.63;;;13.41;54.11
61906;BME280;47863;55.766;37.672;2023-05-31T02:42:23;99539.50;;;13.53;53.92
61906;BME280;47863;55.766;37.672;2023-05-31T02:44:49;99543.03;;;13.68;53.68
61906;BME280;47863;55.766;37.672;2023-05-31T02:47:15;99530.28;;;13.77;53.76
61906;BME280;47863;55.766;37.672;2023-05-31T02:49:41;99522.38;;;13.91;53.31
61906;BME280;47863;55.766;37.672;2023-05-31T02:52:07;99537.63;;;14.20;53.12
61906;BME280;47863;55.766;37.672;2023-05-31T02:54:32;99546.09;;;14.38;52.97
61906;BME280;47863;55.766;37.672;2023-05-31T02:56:58;99482.53;;;14.22;53.13
61906;BME280;47863;55.766;37.672;2023-05-31T02:59:24;99524.16;;;14.63;52.98
61906;BME280;47863;55.766;37.672;2023-05-31T03:01:51;99527.63;;;14.78;53.02
61906;BME280;47863;55.766;37.672;2023-05-31T03:04:16;99480.81;;;14.58;53.10
61906;BME280;47863;55.766;37.672;2023-05-31T03:06:42;99456.78;;;14.63;53.13
61906;BME280;47863;55.766;37.672;2023-05-31T03:09:08;99522.28;;;15.13;52.85
61906;BME280;47863;55.766;37.672;2023-05-31T03:11:34;99528.00;;;15.32;53.29
61906;BME280;47863;55.766;37.672;2023-05-31T03:13:59;99533.66;;;15.43;52.59
61906;BME280;47863;55.766;37.672;2023-05-31T03:16:25;99530.59;;;15.53;52.79
61906;BME280;47863;55.766;37.672;2023-05-31T03:18:51;99516.91;;;15.55;52.96
61906;BME280;47863;55.766;37.672;2023-05-31T03:21:16;99527.34;;;15.64;52.98
61906;BME280;47863;55.766;37.672;2023-05-31T03:23:42;99521.94;;;15.64;52.78
61906;BME280;47863;55.766;37.672;2023-05-31T03:26:08;99537.44;;;15.84;52.79
61906;BME280;47863;55.766;37.672;2023-05-31T03:28:33;99507.91;;;15.76;52.56
61906;BME280;47863;55.766;37.672;2023-05-31T03:30:59;99530.16;;;15.84;52.72
61906;BME280;47863;55.766;37.672;2023-05-31T03:33:25;99542.47;;;15.94;52.49
61906;BME280;47863;55.766;37.672;2023-05-31T03:35:50;99529.72;;;15.81;52.56
61906;BME280;47863;55.766;37.672;2023-05-31T03:38:16;99544.56;;;15.98;52.77
61906;BME280;47863;55.766;37.672;2023-05-31T03:40:41;99551.44;;;16.08;52.61
61906;BME280;47863;55.766;37.672;2023-05-31T03:43:07;99548.56;;;16.16;52.32
61906;BME280;47863;55.766;37.672;2023-05-31T03:45:33;99549.22;;;16.31;52.41
61906;BME280;47863;55.766;37.672;2023-05-31T03:47:58;99557.56;;;16.43;52.19
61906;BME280;47863;55.766;37.672;2023-05-31T03:50:24;99549.66;;;16.48;52.17
61906;BME280;47863;55.766;37.672;2023-05-31T03:52:50;99553.66;;;16.65;51.96
61906;BME280;47863;55.766;37.672;2023-05-31T03:55:15;99555.72;;;16.70;52.06
61906;BME280;47863;55.766;37.672;2023-05-31T03:57:41;99541.34;;;16.56;52.10
61906;BME280;47863;55.766;37.672;2023-05-31T04:00:07;99553.03;;;16.57;52.06
61906;BME280;47863;55.766;37.672;2023-05-31T04:02:37;99547.59;;;16.50;52.36
61906;BME280;47863;55.766;37.672;2023-05-31T04:05:03;99542.59;;;16.47;52.23
61906;BME280;47863;55.766;37.672;2023-05-31T04:07:30;99516.38;;;16.34;52.39
61906;BME280;47863;55.766;37.672;2023-05-31T04:09:57;99522.84;;;16.46;52.33
61906;BME280;47863;55.766;37.672;2023-05-31T04:12:22;99528.25;;;16.60;52.12
61906;BME280;47863;55.766;37.672;2023-05-31T04:14:48;99514.94;;;16.52;52.14
61906;BME280;47863;55.766;37.672;2023-05-31T04:17:13;99532.22;;;16.64;52.12
61906;BME280;47863;55.766;37.672;2023-05-31T04:19:39;99502.06;;;16.47;52.16
61906;BME280;47863;55.766;37.672;2023-05-31T04:22:05;99527.44;;;16.66;52.21
61906;BME280;47863;55.766;37.672;2023-05-31T04:24:32;99518.28;;;16.67;52.36
61906;BME280;47863;55.766;37.672;2023-05-31T04:26:58;99508.72;;;16.71;52.13
61906;BME280;47863;55.766;37.672;2023-05-31T04:29:23;99506.22;;;16.70;52.08
61906;BME280;47863;55.766;37.672;2023-05-31T04:31:51;99519.94;;;16.68;52.37
61906;BME280;47863;55.766;37.672;2023-05-31T04:34:17;99511.19;;;16.66;52.31
61906;BME280;47863;55.766;37.672;2023-05-31T04:36:44;99531.81;;;16.67;52.47
61906;BME280;47863;55.766;37.672;2023-05-31T04:39:15;99530.75;;;16.68;52.47
61906;BME280;47863;55.766;37.672;2023-05-31T04:41:41;99535.75;;;16.78;52.30
61906;BME280;47863;55.766;37.672;2023-05-31T04:44:07;99530.81;;;16.95;52.10
61906;BME280;47863;55.766;37.672;2023-05-31T04:46:32;99515.00;;;16.98;52.02
61906;BME280;47863;55.766;37.672;2023-05-31T04:48:58;99526.84;;;17.11;51.82
61906;BME280;47863;55.766;37.672;2023-05-31T04:51:26;99534.53;;;17.20;51.95
61906;BME280;47863;55.766;37.672;2023-05-31T04:53:52;99532.44;;;17.22;52.06
61906;BME280;47863;55.766;37.672;2023-05-31T04:56:18;99517.44;;;17.13;52.19
61906;BME280;47863;55.766;37.672;2023-05-31T04:58:44;99541.16;;;17.31;52.19
61906;BME280;47863;55.766;37.672;2023-05-31T05:01:10;99532.41;;;17.29;52.08
61906;BME280;47863;55.766;37.672;2023-05-31T05:03:40;99532.84;;;17.19;52.14
61906;BME280;47863;55.766;37.672;2023-05-31T05:06:14;99530.59;;;16.96;52.68
61906;BME280;47863;55.766;37.672;2023-05-31T05:08:42;99538.03;;;16.68;52.89
61906;BME280;47863;55.766;37.672;2023-05-31T05:11:08;99541.94;;;16.38;53.35
61906;BME280;47863;55.766;37.672;2023-05-31T05:13:34;99534.81;;;16.11;53.95
61906;BME280;47863;55.766;37.672;2023-05-31T05:15:59;99534.75;;;15.91;53.79
61906;BME280;47863;55.766;37.672;2023-05-31T05:18:26;99515.66;;;15.51;54.19
61906;BME280;47863;55.766;37.672;2023-05-31T05:20:52;99536.81;;;15.47;54.32
61906;BME280;47863;55.766;37.672;2023-05-31T05:23:17;99530.25;;;15.28;54.20
61906;BME280;47863;55.766;37.672;2023-05-31T05:25:43;99519.59;;;15.13;54.45
61906;BME280;47863;55.766;37.672;2023-05-31T05:28:09;99519.69;;;14.98;54.69
61906;BME280;47863;55.766;37.672;2023-05-31T05:30:35;99536.25;;;14.95;55.01
61906;BME280;47863;55.766;37.672;2023-05-31T05:33:01;99539.53;;;14.91;54.87
61906;BME280;47863;55.766;37.672;2023-05-31T05:35:27;99524.22;;;14.70;54.90
61906;BME280;47863;55.766;37.672;2023-05-31T05:37:52;99532.25;;;14.63;54.77
61906;BME280;47863;55.766;37.672;2023-05-31T05:40:18;99552.97;;;14.62;54.95
61906;BME280;47863;55.766;37.672;2023-05-31T05:42:47;99551.88;;;14.57;55.84
61906;BME280;47863;55.766;37.672;2023-05-31T05:45:13;99548.72;;;14.53;55.18
61906;BME280;47863;55.766;37.672;2023-05-31T05:47:38;99516.94;;;14.27;55.45
61906;BME280;47863;55.766;37.672;2023-05-31T05:50:05;99532.84;;;14.43;55.44
61906;BME280;47863;55.766;37.672;2023-05-31T05:52:30;99550.13;;;14.49;55.52
61906;BME280;47863;55.766;37.672;2023-05-31T05:54:56;99541.41;;;14.47;55.57
61906;BME280;47863;55.766;37.672;2023-05-31T05:57:22;99549.94;;;14.51;55.52
61906;BME280;47863;55.766;37.672;2023-05-31T05:59:47;99562.19;;;14.53;55.58
61906;BME280;47863;55.766;37.672;2023-05-31T06:02:13;99567.97;;;14.50;55.41
61906;BME280;47863;55.766;37.672;2023-05-31T06:04:39;99558.59;;;14.46;55.89
61906;BME280;47863;55.766;37.672;2023-05-31T06:07:05;99558.78;;;14.44;56.07
61906;BME280;47863;55.766;37.672;2023-05-31T06:09:31;99549.88;;;14.44;56.34
61906;BME280;47863;55.766;37.672;2023-05-31T06:11:56;99548.66;;;14.46;56.46
61906;BME280;47863;55.766;37.672;2023-05-31T06:14:22;99541.22;;;14.48;55.94
61906;BME280;47863;55.766;37.672;2023-05-31T06:16:47;99541.66;;;14.52;56.41
61906;BME280;47863;55.766;37.672;2023-05-31T06:19:13;99525.44;;;14.45;56.25
61906;BME280;47863;55.766;37.672;2023-05-31T06:21:39;99544.81;;;14.56;56.44
61906;BME280;47863;55.766;37.672;2023-05-31T06:24:05;99546.66;;;14.55;56.37
61906;BME280;47863;55.766;37.672;2023-05-31T06:26:31;99525.19;;;14.40;56.58
61906;BME280;47863;55.766;37.672;2023-05-31T06:28:58;99526.81;;;14.41;56.59
61906;BME280;47863;55.766;37.672;2023-05-31T06:31:26;99518.56;;;14.43;56.82
61906;BME280;47863;55.766;37.672;2023-05-31T06:33:52;99523.00;;;14.51;56.86
61906;BME280;47863;55.766;37.672;2023-05-31T06:36:18;99516.38;;;14.53;57.02
61906;BME280;47863;55.766;37.672;2023-05-31T06:38:43;99509.69;;;14.49;57.17
61906;BME280;47863;55.766;37.672;2023-05-31T06:41:12;99508.09;;;14.55;57.34
61906;BME280;47863;55.766;37.672;2023-05-31T06:43:37;99510.63;;;14.56;57.58
61906;BME280;47863;55.766;37.672;2023-05-31T06:46:03;99507.56;;;14.59;57.60
61906;BME280;47863;55.766;37.672;2023-05-31T06:48:32;99509.59;;;14.57;57.82
61906;BME280;47863;55.766;37.672;2023-05-31T06:50:58;99487.50;;;14.47;57.98
61906;BME280;47863;55.766;37.672;2023-05-31T06:53:24;99509.59;;;14.57;58.33
61906;BME280;47863;55.766;37.672;2023-05-31T06:55:49;99500.19;;;14.53;58.20
61906;BME280;47863;55.766;37.672;2023-05-31T06:58:16;99487.63;;;14.39;58.71
61906;BME280;47863;55.766;37.672;2023-05-31T07:00:42;99513.81;;;14.45;58.71
61906;BME280;47863;55.766;37.672;2023-05-31T07:03:07;99508.38;;;14.38;58.78
61906;BME280;47863;55.766;37.672;2023-05-31T07:05:34;99511.53;;;14.42;59.12
61906;BME280;47863;55.766;37.672;2023-05-31T07:07:59;99507.59;;;14.44;58.84
61906;BME280;47863;55.766;37.672;2023-05-31T07:10:25;99506.59;;;14.45;59.36
61906;BME280;47863;55.766;37.672;2023-05-31T07:12:53;99507.22;;;14.47;59.19
61906;BME280;47863;55.766;37.672;2023-05-31T07:15:19;99489.63;;;14.52;59.17
61906;BME280;47863;55.766;37.672;2023-05-31T07:17:45;99477.44;;;14.56;59.35
61906;BME280;47863;55.766;37.672;2023-05-31T07:20:11;99487.28;;;14.63;59.73
61906;BME280;47863;55.766;37.672;2023-05-31T07:22:37;99492.72;;;14.70;59.76
61906;BME280;47863;55.766;37.672;2023-05-31T07:25:04;99487.97;;;14.72;59.35
61906;BME280;47863;55.766;37.672;2023-05-31T07:27:30;99477.56;;;14.69;59.26
61906;BME280;47863;55.766;37.672;2023-05-31T07:29:56;99465.13;;;14.68;59.51
61906;BME280;47863;55.766;37.672;2023-05-31T07:32:22;99439.78;;;14.62;59.60
61906;BME280;47863;55.766;37.672;2023-05-31T07:34:48;99437.56;;;14.73;59.53
61906;BME280;47863;55.766;37.672;2023-05-31T07:37:13;99457.00;;;14.96;59.31
61906;BME280;47863;55.766;37.672;2023-05-31T07:39:39;99456.31;;;15.16;59.12
61906;BME280;47863;55.766;37.672;2023-05-31T07:42:05;99462.84;;;15.35;59.05
61906;BME280;47863;55.766;37.672;2023-05-31T07:44:31;99482.84;;;15.54;58.62
61906;BME280;47863;55.766;37.672;2023-05-31T07:46:56;99470.22;;;15.61;58.33
61906;BME280;47863;55.766;37.672;2023-05-31T07:49:22;99485.28;;;15.83;58.08
61906;BME280;47863;55.766;37.672;2023-05-31T07:51:47;99489.06;;;16.02;57.90
61906;BME280;47863;55.766;37.672;2023-05-31T07:54:13;99460.63;;;16.06;58.22
61906;BME280;47863;55.766;37.672;2023-05-31T07:56:39;99476.25;;;16.31;57.79
61906;BME280;47863;55.766;37.672;2023-05-31T07:59:06;99474.19;;;16.40;58.01
61906;BME280;47863;55.766;37.672;2023-05-31T08:01:32;99477.28;;;16.50;58.12
61906;BME280;47863;55.766;37.672;2023-05-31T08:04:09;99463.78;;;16.57;58.20
61906;BME280;47863;55.766;37.672;2023-05-31T08:06:35;99484.59;;;16.90;57.54
61906;BME280;47863;55.766;37.672;2023-05-31T08:09:04;99470.44;;;17.01;57.41
61906;BME280;47863;55.766;37.672;2023-05-31T08:11:30;99476.84;;;17.20;57.16
61906;BME280;47863;55.766;37.672;2023-05-31T08:13:56;99486.44;;;17.22;57.12
61906;BME280;47863;55.766;37.672;2023-05-31T08:16:22;99469.34;;;17.15;57.21
61906;BME280;47863;55.766;37.672;2023-05-31T08:18:47;99484.78;;;17.15;57.44
61906;BME280;47863;55.766;37.672;2023-05-31T08:21:14;99484.38;;;17.04;57.75
61906;BME280;47863;55.766;37.672;2023-05-31T08:23:40;99481.09;;;16.82;58.01
61906;BME280;47863;55.766;37.672;2023-05-31T08:26:06;99482.69;;;16.70;58.30
61906;BME280;47863;55.766;37.672;2023-05-31T08:28:33;99489.56;;;16.59;58.07
61906;BME280;47863;55.766;37.672;2023-05-31T08:30:59;99488.13;;;16.50;58.47
61906;BME280;47863;55.766;37.672;2023-05-31T08:33:29;99495.78;;;16.46;59.48
61906;BME280;47863;55.766;37.672;2023-05-31T08:35:56;99454.63;;;16.31;58.78
61906;BME280;47863;55.766;37.672;2023-05-31T08:38:28;99490.38;;;16.46;58.55
61906;BME280;47863;55.766;37.672;2023-05-31T08:41:00;99494.34;;;16.37;59.12
61906;BME280;47863;55.766;37.672;2023-05-31T08:43:27;99498.28;;;16.21;59.11
61906;BME280;47863;55.766;37.672;2023-05-31T08:45:54;99491.59;;;16.11;59.24
61906;BME280;47863;55.766;37.672;2023-05-31T08:48:27;99501.72;;;15.95;59.21
61906;BME280;47863;55.766;37.672;2023-05-31T08:50:56;99502.72;;;15.81;59.23
61906;BME280;47863;55.766;37.672;2023-05-31T08:53:24;99517.38;;;15.65;59.61
61906;BME280;47863;55.766;37.672;2023-05-31T08:55:54;99498.81;;;15.49;59.47
61906;BME280;47863;55.766;37.672;2023-05-31T08:58:20;99500.91;;;15.53;59.66
61906;BME280;47863;55.766;37.672;2023-05-31T09:00:46;99497.41;;;15.59;59.59
61906;BME280;47863;55.766;37.672;2023-05-31T09:03:13;99503.72;;;15.73;59.16
61906;BME280;47863;55.766;37.672;2023-05-31T09:05:39;99505.41;;;15.81;59.18
61906;BME280;47863;55.766;37.672;2023-05-31T09:08:04;99505.44;;;15.88;58.97
61906;BME280;47863;55.766;37.672;2023-05-31T09:10:30;99470.31;;;15.74;58.97
61906;BME280;47863;55.766;37.672;2023-05-31T09:12:57;99470.31;;;15.81;58.96
61906;BME280;47863;55.766;37.672;2023-05-31T09:15:23;99488.22;;;15.95;58.29
61906;BME280;47863;55.766;37.672;2023-05-31T09:17:50;99494.06;;;15.99;58.43
61906;BME280;47863;55.766;37.672;2023-05-31T09:20:15;99485.75;;;15.94;58.33
61906;BME280;47863;55.766;37.672;2023-05-31T09:22:42;99495.94;;;16.05;58.63
61906;BME280;47863;55.766;37.672;2023-05-31T09:25:11;99474.94;;;16.00;58.02
61906;BME280;47863;55.766;37.672;2023-05-31T09:27:38;99496.41;;;16.15;58.21
61906;BME280;47863;55.766;37.672;2023-05-31T09:32:35;99495.53;;;16.08;58.01
61906;BME280;47863;55.766;37.672;2023-05-31T09:35:13;99482.19;;;15.93;58.20
61906;BME280;47863;55.766;37.672;2023-05-31T09:37:46;99492.59;;;15.96;58.24
61906;BME280;47863;55.766;37.672;2023-05-31T09:40:23;99460.97;;;15.83;57.78
61906;BME280;47863;55.766;37.672;2023-05-31T09:42:50;99489.78;;;16.31;57.76
61906;BME280;47863;55.766;37.672;2023-05-31T09:45:17;99466.66;;;17.02;56.33
61906;BME280;47863;55.766;37.672;2023-05-31T09:47:44;99486.44;;;17.88;55.04
61906;BME280;47863;55.766;37.672;2023-05-31T09:50:11;99480.47;;;18.42;54.24
61906;BME280;47863;55.766;37.672;2023-05-31T09:52:37;99484.63;;;18.70;53.88
61906;BME280;47863;55.766;37.672;2023-05-31T09:55:07;99489.28;;;18.88;53.73
61906;BME280;47863;55.766;37.672;2023-05-31T09:57:35;99483.72;;;18.76;53.98
61906;BME280;47863;55.766;37.672;2023-05-31T10:00:09;99498.56;;;18.74;54.03
61906;BME280;47863;55.766;37.672;2023-05-31T10:02:44;99488.88;;;18.59;54.39
61906;BME280;47863;55.766;37.672;2023-05-31T10:05:10;99493.03;;;18.30;54.74
61906;BME280;47863;55.766;37.672;2023-05-31T10:07:41;99489.28;;;17.93;55.13
61906;BME280;47863;55.766;37.672;2023-05-31T10:10:08;99508.38;;;17.66;55.35
61906;BME280;47863;55.766;37.672;2023-05-31T10:15:09;99494.56;;;16.96;55.84
61906;BME280;47863;55.766;37.672;2023-05-31T10:17:45;99504.13;;;16.78;55.98
61906;BME280;47863;55.766;37.672;2023-05-31T10:20:13;99511.63;;;16.63;56.14
61906;BME280;47863;55.766;37.672;2023-05-31T10:22:43;99502.44;;;16.51;56.05
61906;BME280;47863;55.766;37.672;2023-05-31T10:25:13;99518.44;;;16.32;55.97
61906;BME280;47863;55.766;37.672;2023-05-31T10:27:44;99513.63;;;16.08;56.43
61906;BME280;47863;55.766;37.672;2023-05-31T10:30:12;99521.31;;;16.04;56.32
61906;BME280;47863;55.766;37.672;2023-05-31T10:32:59;99526.00;;;15.82;56.18
61906;BME280;47863;55.766;37.672;2023-05-31T10:35:26;99516.72;;;15.56;56.77
61906;BME280;47863;55.766;37.672;2023-05-31T10:37:52;99521.59;;;15.39;56.76
61906;BME280;47863;55.766;37.672;2023-05-31T10:48:19;99537.81;;;14.83;57.13
61906;BME280;47863;55.766;37.672;2023-05-31T10:51:01;99512.66;;;14.54;57.47
61906;BME280;47863;55.766;37.672;2023-05-31T10:53:29;99517.78;;;14.49;57.14
61906;BME280;47863;55.766;37.672;2023-05-31T10:56:06;99540.19;;;14.50;58.50
61906;BME280;47863;55.766;37.672;2023-05-31T11:01:05;99550.97;;;14.28;57.41
61906;BME280;47863;55.766;37.672;2023-05-31T11:03:33;99536.69;;;14.13;57.57
61906;BME280;47863;55.766;37.672;2023-05-31T11:06:01;99546.19;;;14.08;57.60
61906;BME280;47863;55.766;37.672;2023-05-31T11:08:31;99555.50;;;13.91;57.73
61906;BME280;47863;55.766;37.672;2023-05-31T11:11:26;99553.81;;;13.90;57.54
61906;BME280;47863;55.766;37.672;2023-05-31T11:16:21;99563.94;;;13.88;57.59
61906;BME280;47863;55.766;37.672;2023-05-31T11:18:46;99566.38;;;13.83;57.51
61906;BME280;47863;55.766;37.672;2023-05-31T11:21:47;99571.03;;;13.74;57.67
61906;BME280;47863;55.766;37.672;2023-05-31T11:27:00;99550.38;;;13.45;58.70
61906;BME280;47863;55.766;37.672;2023-05-31T11:32:13;99507.09;;;13.02;58.17
61906;BME280;47863;55.766;37.672;2023-05-31T11:37:15;99571.03;;;13.29;58.30
61906;BME280;47863;55.766;37.672;2023-05-31T11:39:44;99564.69;;;13.22;59.13
61906;BME280;47863;55.766;37.672;2023-05-31T11:42:11;99554.91;;;13.06;58.61
61906;BME280;47863;55.766;37.672;2023-05-31T11:44:42;99563.13;;;13.13;58.59
61906;BME280;47863;55.766;37.672;2023-05-31T11:47:20;99571.19;;;13.13;58.63
61906;BME280;47863;55.766;37.672;2023-05-31T11:49:47;99581.56;;;13.16;58.38
61906;BME280;47863;55.766;37.672;2023-05-31T11:52:17;99561.78;;;13.09;58.68
61906;BME280;47863;55.766;37.672;2023-05-31T11:54:44;99569.88;;;13.24;58.32
61906;BME280;47863;55.766;37.672;2023-05-31T11:57:11;99555.78;;;13.22;58.48
61906;BME280;47863;55.766;37.672;2023-05-31T11:59:38;99561.47;;;13.42;58.41
61906;BME280;47863;55.766;37.672;2023-05-31T12:02:06;99553.78;;;13.39;58.27
61906;BME280;47863;55.766;37.672;2023-05-31T12:04:42;99568.34;;;13.59;58.93
61906;BME280;47863;55.766;37.672;2023-05-31T12:07:16;99554.25;;;13.57;58.21
61906;BME280;47863;55.766;37.672;2023-05-31T12:09:42;99569.38;;;13.73;57.71
61906;BME280;47863;55.766;37.672;2023-05-31T12:12:08;99579.97;;;13.75;57.72
61906;BME280;47863;55.766;37.672;2023-05-31T12:14:35;99581.06;;;13.80;57.62
61906;BME280;47863;55.766;37.672;2023-05-31T12:17:05;99578.06;;;13.90;58.27
61906;BME280;47863;55.766;37.672;2023-05-31T12:19:32;99573.41;;;13.99;57.56
61906;BME280;47863;55.766;37.672;2023-05-31T12:21:58;99560.44;;;13.87;57.53
61906;BME280;47863;55.766;37.672;2023-05-31T12:24:24;99567.03;;;13.85;57.68
61906;BME280;47863;55.766;37.672;2023-05-31T12:26:50;99560.81;;;13.69;57.82
61906;BME280;47863;55.766;37.672;2023-05-31T12:29:17;99584.94;;;13.78;58.06
61906;BME280;47863;55.766;37.672;2023-05-31T12:31:44;99565.75;;;13.66;57.87
61906;BME280;47863;55.766;37.672;2023-05-31T12:34:12;99572.25;;;13.72;57.96
61906;BME280;47863;55.766;37.672;2023-05-31T12:39:23;99573.72;;;13.89;58.36
61906;BME280;47863;55.766;37.672;2023-05-31T12:41:52;99582.78;;;13.88;57.95
61906;BME280;47863;55.766;37.672;2023-05-31T12:44:20;99587.00;;;13.91;57.75
61906;BME280;47863;55.766;37.672;2023-05-31T12:46:50;99558.13;;;13.69;57.92
61906;BME280;47863;55.766;37.672;2023-05-31T12:49:24;99585.50;;;13.88;57.90
61906;BME280;47863;55.766;37.672;2023-05-31T12:51:58;99583.66;;;13.88;57.90
61906;BME280;47863;55.766;37.672;2023-05-31T12:54:25;99589.88;;;13.89;57.46
61906;BME280;47863;55.766;37.672;2023-05-31T12:56:52;99576.69;;;13.79;57.44
61906;BME280;47863;55.766;37.672;2023-05-31T12:59:18;99562.94;;;13.74;57.36
61906;BME280;47863;55.766;37.672;2023-05-31T13:01:44;99565.84;;;13.73;57.82
61906;BME280;47863;55.766;37.672;2023-05-31T13:04:10;99576.50;;;13.81;57.56
61906;BME280;47863;55.766;37.672;2023-05-31T13:06:39;99574.72;;;13.88;57.16
61906;BME280;47863;55.766;37.672;2023-05-31T13:09:06;99575.38;;;13.90;57.03
61906;BME280;47863;55.766;37.672;2023-05-31T13:11:38;99555.88;;;13.88;57.11
61906;BME280;47863;55.766;37.672;2023-05-31T13:14:07;99563.13;;;14.02;56.87
61906;BME280;47863;55.766;37.672;2023-05-31T13:16:34;99544.03;;;14.04;57.02
61906;BME280;47863;55.766;37.672;2023-05-31T13:19:01;99556.84;;;14.17;56.81
61906;BME280;47863;55.766;37.672;2023-05-31T13:21:28;99557.50;;;14.19;56.79
61906;BME280;47863;55.766;37.672;2023-05-31T13:23:55;99567.13;;;14.28;56.57
61906;BME280;47863;55.766;37.672;2023-05-31T13:26:22;99563.56;;;14.27;56.58
61906;BME280;47863;55.766;37.672;2023-05-31T13:28:49;99570.19;;;14.25;56.41